METAR Data
IDs: Format: Raw Decoded Include TAF

Data at: 1100 UTC 28 Sep 2021

KTQH 281055Z AUTO 00000KT 10SM CLR 15/13 A2995 RMK AO2